Aérodrome :
LOGIN :

S'inscrire | Disclaimer

   EN    FR    IT 

 










Légende :    VFR   VFR Marginal   IFR   IFR Intensif   IFR Très Intensif
Visi : 
Plafond : 
>= 8 km
>= 3000ft
5 à 8 km
1000 à 3000 ft
1500m à 5 km
500 à 1000 ft
800 à 1500m
200 à 500 ft
< 800m
< 200 ft
Symboles :   Orages  Brouillard  Fortes neiges  Fortes précipitations  Vent > 20 kt
SIGMETs :   Divers  Orages  Givrage  Turbulence  Onde Orograph.  Cendres Volcan.







- Altitude de l'aérodrome : 1197 ft
- Code IATA : SPM


ETAD - Spangdahlem Ab

DERNIER METAR :
  • 280058Z AUTO 06004KT 9999 CLR 19/11 A3010 RMK AO2 SLP166 T01860108 $

METARs EXPIRÉS :
  • 272358Z AUTO 08004KT 9999 CLR 17/12 A3010 RMK AO2 SLP167 T01720117 10271 20172 50002 $
  • 272258Z AUTO 08004KT 9999 CLR 20/11 A3010 RMK AO2 SLP166 T02000106 402980144 $

TAF TAF ETAD
Valide du 27 à 19h jusqu'au 29 à 01h UTC


271907Z 2719/2901 VRB06KT 9999 SKC QNH3003INS
BECMG 2806/2807 13009KT 9999 SCT020 BKN100 QNH3004INS
BECMG 2813/2814 13009KT 9000 -SHRA BKN040 QNH3002INS
TEMPO 2816/2820 9000 -TSRA BKN040CB
BECMG 2819/2820 12006KT 9999 NSW FEW040 QNH3000INS TX30/2815Z TN12/2804Z
Pas de NOTAMs connus pour ce terrain.



MET'MAP, la Météo Aéronautique d'un coup d'oeil ! - Copyright ORBIFLY Décembre 2007 - Disclaimer

ORBIFLY MET'MAP TEAM :

Programmation & Développement : Alexandra Zaïnal
Conception & Développement : Baudouin d'Aumeries
Co-Programmation & Développement : Marc-Olivier Méhu
Soutien technique & logistique : Manuel Goepfert

Contact : metmap@orbifly.com




SOURCES & CREDITS :

   NOAA